Impacts TAF Board
For situational awareness. Not to be used for flight planning purposes.
IDs:

KMSP - Minneapolis-St Paul, MN, US

Issued at 1528 UTC 20 Sep 2018
Updated at 1605 UTC 20 Sep 2018
Potential Impact None Slight Moderate High
Time<<21/05Z 21/06Z 21/07Z 21/08Z 21/09Z 21/10Z 21/11Z 21/12Z 21/13Z 21/14Z 21/15Z 21/16Z 21/17Z>>
Type PRVL PRVL PRVL PRVL PRVL PRVL PRVL PRVL PRVL PRVL PRVL PRVL PRVL
VIS >6 >6 >6 >6 >6 >6 >6 >6 >6 >6 >6 >6 >6
CIG 8 8 8 8 8 8 8 8 10 10 10 10 10
Cover OVC OVC OVC OVC OVC OVC OVC OVC OVC OVC OVC OVC OVC
FltCat IFR IFR IFR IFR IFR IFR IFR IFR MVFR MVFR MVFR MVFR MVFR
WX -- -- -- -- -- -- -- -- -- -- -- -- --
WDir 280 280 280 280 280 280 280 280 300 300 300 300 300
WSpd 17 17 17 17 17 17 17 17 17 17 17 17 17
WGst 28 28 28 28 28 28 28 28 24 24 24 24 24
Raw TAF
KMSP 201528Z 2015/2118 11007KT 6SM -RA BR BKN005 BKN025
  FM201900 12011KT 6SM -RA VCTS BKN025CB
  TEMPO 2019/2022 2SM TSRA OVC010CB
  FM202300 17013G21KT 1SM +TSRA BR BKN007CB
  FM210200 21011G24KT P6SM VCSH SCT012 OVC025
  FM210500 28017G28KT P6SM OVC008
  FM211300 30017G24KT P6SM OVC010


METAR Board
Radar Display
Forecast Discussion
For situational awareness. Not to be used for flight planning purposes.